sensor_id;sensor_type;location;lat;lon;timestamp;pressure;altitude;pressure_sealevel;temperature;humidity
39769;BME280;38939;47.824;14.642;2023-03-21T00:00:33;97106.78;;;7.93;91.65
39769;BME280;38939;47.824;14.642;2023-03-21T00:01:35;97106.00;;;7.92;91.49
39769;BME280;38939;47.824;14.642;2023-03-21T00:02:38;97109.56;;;7.91;91.56
39769;BME280;38939;47.824;14.642;2023-03-21T00:03:40;97109.75;;;7.90;91.38
39769;BME280;38939;47.824;14.642;2023-03-21T00:04:47;97107.50;;;7.87;91.17
39769;BME280;38939;47.824;14.642;2023-03-21T00:05:54;97115.75;;;7.90;91.07
39769;BME280;38939;47.824;14.642;2023-03-21T00:06:56;97104.97;;;7.93;90.92
39769;BME280;38939;47.824;14.642;2023-03-21T00:07:58;97103.38;;;7.92;91.69
39769;BME280;38939;47.824;14.642;2023-03-21T00:09:02;97105.19;;;7.92;91.31
39769;BME280;38939;47.824;14.642;2023-03-21T00:10:05;97104.81;;;7.95;90.27
39769;BME280;38939;47.824;14.642;2023-03-21T00:11:27;97098.47;;;7.82;91.33
39769;BME280;38939;47.824;14.642;2023-03-21T00:12:29;97103.19;;;7.79;90.73
39769;BME280;38939;47.824;14.642;2023-03-21T00:13:33;97104.00;;;7.79;90.97
39769;BME280;38939;47.824;14.642;2023-03-21T00:14:39;97097.38;;;7.77;90.98
39769;BME280;38939;47.824;14.642;2023-03-21T00:15:42;97104.19;;;7.78;91.10
39769;BME280;38939;47.824;14.642;2023-03-21T00:17:15;97102.41;;;7.78;92.35
39769;BME280;38939;47.824;14.642;2023-03-21T00:18:17;97097.03;;;7.80;92.36
39769;BME280;38939;47.824;14.642;2023-03-21T00:19:22;97101.06;;;7.82;92.22
39769;BME280;38939;47.824;14.642;2023-03-21T00:20:27;97103.47;;;7.84;92.25
39769;BME280;38939;47.824;14.642;2023-03-21T00:21:29;97097.47;;;7.84;92.08
39769;BME280;38939;47.824;14.642;2023-03-21T00:22:53;97103.28;;;7.86;91.81
39769;BME280;38939;47.824;14.642;2023-03-21T00:23:55;97100.69;;;7.86;91.82
39769;BME280;38939;47.824;14.642;2023-03-21T00:24:57;97093.53;;;7.88;91.40
39769;BME280;38939;47.824;14.642;2023-03-21T00:25:59;97094.34;;;7.88;92.06
39769;BME280;38939;47.824;14.642;2023-03-21T00:27:02;97091.38;;;7.91;92.24
39769;BME280;38939;47.824;14.642;2023-03-21T00:28:24;97085.44;;;7.97;91.07
39769;BME280;38939;47.824;14.642;2023-03-21T00:29:26;97088.06;;;7.97;91.88
39769;BME280;38939;47.824;14.642;2023-03-21T00:30:28;97094.41;;;7.95;91.68
39769;BME280;38939;47.824;14.642;2023-03-21T00:31:31;97088.59;;;7.93;92.35
39769;BME280;38939;47.824;14.642;2023-03-21T00:32:33;97092.19;;;7.92;92.15
39769;BME280;38939;47.824;14.642;2023-03-21T00:33:43;97087.97;;;7.91;92.71
39769;BME280;38939;47.824;14.642;2023-03-21T00:34:46;97083.22;;;7.94;92.65
39769;BME280;38939;47.824;14.642;2023-03-21T00:36:07;97089.06;;;7.96;91.58
39769;BME280;38939;47.824;14.642;2023-03-21T00:37:10;97085.44;;;7.97;92.04
39769;BME280;38939;47.824;14.642;2023-03-21T00:38:20;97089.50;;;8.00;91.93
39769;BME280;38939;47.824;14.642;2023-03-21T00:39:22;97085.66;;;7.96;91.65
39769;BME280;38939;47.824;14.642;2023-03-21T00:40:24;97082.78;;;7.91;91.84
39769;BME280;38939;47.824;14.642;2023-03-21T00:41:35;97078.94;;;7.87;91.78
39769;BME280;38939;47.824;14.642;2023-03-21T00:42:44;97080.56;;;7.88;92.30
39769;BME280;38939;47.824;14.642;2023-03-21T00:43:46;97073.09;;;7.85;92.23
39769;BME280;38939;47.824;14.642;2023-03-21T00:44:48;97067.22;;;7.76;91.87
39769;BME280;38939;47.824;14.642;2023-03-21T00:45:50;97073.53;;;7.73;92.52
39769;BME280;38939;47.824;14.642;2023-03-21T00:46:52;97068.63;;;7.78;92.37
39769;BME280;38939;47.824;14.642;2023-03-21T00:48:08;97062.53;;;7.71;92.87
39769;BME280;38939;47.824;14.642;2023-03-21T00:49:10;97071.16;;;7.72;92.04
39769;BME280;38939;47.824;14.642;2023-03-21T00:50:12;97070.94;;;7.73;91.87
39769;BME280;38939;47.824;14.642;2023-03-21T00:51:17;97068.34;;;7.73;92.81
39769;BME280;38939;47.824;14.642;2023-03-21T00:52:22;97066.94;;;7.71;92.33
39769;BME280;38939;47.824;14.642;2023-03-21T00:53:40;97060.75;;;7.72;92.64
39769;BME280;38939;47.824;14.642;2023-03-21T00:54:43;97060.13;;;7.70;92.38
39769;BME280;38939;47.824;14.642;2023-03-21T00:55:45;97060.94;;;7.70;92.31
39769;BME280;38939;47.824;14.642;2023-03-21T00:56:47;97059.50;;;7.68;92.73
39769;BME280;38939;47.824;14.642;2023-03-21T00:57:50;97058.06;;;7.65;92.41
39769;BME280;38939;47.824;14.642;2023-03-21T00:59:02;97057.88;;;7.67;92.86
39769;BME280;38939;47.824;14.642;2023-03-21T01:00:04;97063.88;;;7.67;92.10
39769;BME280;38939;47.824;14.642;2023-03-21T01:01:11;97062.91;;;7.68;92.49
39769;BME280;38939;47.824;14.642;2023-03-21T01:02:13;97065.84;;;7.65;93.13
39769;BME280;38939;47.824;14.642;2023-03-21T01:03:23;97057.63;;;7.61;93.32
39769;BME280;38939;47.824;14.642;2023-03-21T01:04:27;97058.25;;;7.64;93.31
39769;BME280;38939;47.824;14.642;2023-03-21T01:05:31;97056.47;;;7.64;92.49
39769;BME280;38939;47.824;14.642;2023-03-21T01:06:53;97053.13;;;7.70;92.32
39769;BME280;38939;47.824;14.642;2023-03-21T01:07:56;97057.00;;;7.74;92.50
39769;BME280;38939;47.824;14.642;2023-03-21T01:08:58;97046.44;;;7.76;92.17
39769;BME280;38939;47.824;14.642;2023-03-21T01:10:00;97045.88;;;7.80;91.71
39769;BME280;38939;47.824;14.642;2023-03-21T01:11:05;97047.94;;;7.85;92.05
39769;BME280;38939;47.824;14.642;2023-03-21T01:12:08;97046.97;;;7.86;91.01
39769;BME280;38939;47.824;14.642;2023-03-21T01:13:12;97045.16;;;7.87;91.62
39769;BME280;38939;47.824;14.642;2023-03-21T01:14:16;97050.00;;;7.90;91.42
39769;BME280;38939;47.824;14.642;2023-03-21T01:15:24;97049.81;;;7.91;90.77
39769;BME280;38939;47.824;14.642;2023-03-21T01:16:26;97047.19;;;7.91;90.92
39769;BME280;38939;47.824;14.642;2023-03-21T01:17:28;97055.28;;;7.96;90.73
39769;BME280;38939;47.824;14.642;2023-03-21T01:18:31;97054.09;;;7.99;90.68
39769;BME280;38939;47.824;14.642;2023-03-21T01:19:33;97056.97;;;8.04;90.10
39769;BME280;38939;47.824;14.642;2023-03-21T01:20:54;97053.81;;;8.09;90.56
39769;BME280;38939;47.824;14.642;2023-03-21T01:21:57;97050.03;;;8.11;90.27
39769;BME280;38939;47.824;14.642;2023-03-21T01:22:58;97057.03;;;8.11;89.50
39769;BME280;38939;47.824;14.642;2023-03-21T01:24:02;97053.38;;;8.05;89.18
39769;BME280;38939;47.824;14.642;2023-03-21T01:25:04;97053.53;;;8.04;89.34
39769;BME280;38939;47.824;14.642;2023-03-21T01:26:22;97049.97;;;8.05;89.91
39769;BME280;38939;47.824;14.642;2023-03-21T01:27:24;97051.41;;;8.07;89.10
39769;BME280;38939;47.824;14.642;2023-03-21T01:28:27;97048.97;;;8.06;89.30
39769;BME280;38939;47.824;14.642;2023-03-21T01:29:30;97043.34;;;8.02;89.22
39769;BME280;38939;47.824;14.642;2023-03-21T01:30:33;97048.91;;;7.99;89.61
39769;BME280;38939;47.824;14.642;2023-03-21T01:31:42;97050.16;;;8.03;89.86
39769;BME280;38939;47.824;14.642;2023-03-21T01:32:44;97044.78;;;8.05;89.91
39769;BME280;38939;47.824;14.642;2023-03-21T01:33:46;97047.00;;;8.08;89.35
39769;BME280;38939;47.824;14.642;2023-03-21T01:34:48;97042.25;;;8.11;88.55
39769;BME280;38939;47.824;14.642;2023-03-21T01:35:51;97048.88;;;8.14;88.79
39769;BME280;38939;47.824;14.642;2023-03-21T01:37:10;97055.31;;;8.18;89.17
39769;BME280;38939;47.824;14.642;2023-03-21T01:38:12;97047.50;;;8.18;88.40
39769;BME280;38939;47.824;14.642;2023-03-21T01:39:16;97050.72;;;8.20;88.30
39769;BME280;38939;47.824;14.642;2023-03-21T01:40:24;97056.75;;;8.20;87.58
39769;BME280;38939;47.824;14.642;2023-03-21T01:41:38;97055.13;;;8.19;88.36
39769;BME280;38939;47.824;14.642;2023-03-21T01:42:44;97054.69;;;8.16;87.88
39769;BME280;38939;47.824;14.642;2023-03-21T01:43:46;97052.47;;;8.13;88.28
39769;BME280;38939;47.824;14.642;2023-03-21T01:46:19;97045.22;;;8.08;87.69
39769;BME280;38939;47.824;14.642;2023-03-21T01:47:23;97051.06;;;8.10;87.83
39769;BME280;38939;47.824;14.642;2023-03-21T01:48:27;97040.19;;;8.07;87.69
39769;BME280;38939;47.824;14.642;2023-03-21T01:49:39;97045.41;;;8.07;87.70
39769;BME280;38939;47.824;14.642;2023-03-21T01:50:48;97043.16;;;8.04;87.81
39769;BME280;38939;47.824;14.642;2023-03-21T01:51:53;97040.56;;;8.04;87.43
39769;BME280;38939;47.824;14.642;2023-03-21T01:53:04;97040.38;;;8.05;88.37
39769;BME280;38939;47.824;14.642;2023-03-21T01:54:11;97036.59;;;8.08;87.43
39769;BME280;38939;47.824;14.642;2023-03-21T01:55:16;97046.03;;;8.09;87.94
39769;BME280;38939;47.824;14.642;2023-03-21T01:56:30;97040.19;;;8.07;87.10
39769;BME280;38939;47.824;14.642;2023-03-21T01:57:50;97036.59;;;8.08;87.70
39769;BME280;38939;47.824;14.642;2023-03-21T01:59:10;97040.66;;;8.10;87.05
39769;BME280;38939;47.824;14.642;2023-03-21T02:00:14;97039.81;;;8.10;87.01
39769;BME280;38939;47.824;14.642;2023-03-21T02:01:17;97043.59;;;8.07;87.35
39769;BME280;38939;47.824;14.642;2023-03-21T02:02:24;97035.81;;;8.07;86.76
39769;BME280;38939;47.824;14.642;2023-03-21T02:03:28;97032.84;;;8.10;87.11
39769;BME280;38939;47.824;14.642;2023-03-21T02:04:39;97039.75;;;8.03;86.92
39769;BME280;38939;47.824;14.642;2023-03-21T02:06:58;97044.88;;;7.96;86.52
39769;BME280;38939;47.824;14.642;2023-03-21T02:08:01;97032.78;;;7.89;87.13
39769;BME280;38939;47.824;14.642;2023-03-21T02:09:07;97034.75;;;7.87;87.00
39769;BME280;38939;47.824;14.642;2023-03-21T02:10:12;97035.22;;;7.90;86.79
39769;BME280;38939;47.824;14.642;2023-03-21T02:11:16;97037.63;;;7.92;86.85
39769;BME280;38939;47.824;14.642;2023-03-21T02:12:19;97033.78;;;7.88;86.77
39769;BME280;38939;47.824;14.642;2023-03-21T02:13:22;97035.13;;;7.84;87.63
39769;BME280;38939;47.824;14.642;2023-03-21T02:14:24;97033.69;;;7.81;87.52
39769;BME280;38939;47.824;14.642;2023-03-21T02:15:30;97029.66;;;7.78;87.32
39769;BME280;38939;47.824;14.642;2023-03-21T02:17:45;97032.91;;;7.80;87.20
39769;BME280;38939;47.824;14.642;2023-03-21T02:19:20;97031.03;;;7.74;87.76
39769;BME280;38939;47.824;14.642;2023-03-21T02:29:41;97027.19;;;7.70;88.08
39769;BME280;38939;47.824;14.642;2023-03-21T02:31:01;97029.22;;;7.75;87.93
39769;BME280;38939;47.824;14.642;2023-03-21T02:34:02;97027.16;;;7.85;88.35
39769;BME280;38939;47.824;14.642;2023-03-21T02:39:18;97019.09;;;7.80;86.98
39769;BME280;38939;47.824;14.642;2023-03-21T02:43:08;97019.09;;;7.65;87.13
39769;BME280;38939;47.824;14.642;2023-03-21T02:44:34;97016.16;;;7.68;87.75
39769;BME280;38939;47.824;14.642;2023-03-21T02:45:43;97008.63;;;7.73;86.95
39769;BME280;38939;47.824;14.642;2023-03-21T02:46:54;97011.50;;;7.78;87.56
39769;BME280;38939;47.824;14.642;2023-03-21T02:48:11;97015.34;;;7.82;87.35
39769;BME280;38939;47.824;14.642;2023-03-21T02:49:49;97016.75;;;7.85;86.44
39769;BME280;38939;47.824;14.642;2023-03-21T02:50:55;97016.59;;;7.87;86.25
39769;BME280;38939;47.824;14.642;2023-03-21T02:51:58;97021.59;;;7.88;85.84
39769;BME280;38939;47.824;14.642;2023-03-21T02:53:19;97014.44;;;7.90;85.56
39769;BME280;38939;47.824;14.642;2023-03-21T02:54:23;97019.63;;;7.90;85.30
39769;BME280;38939;47.824;14.642;2023-03-21T02:55:45;97012.00;;;7.89;85.27
39769;BME280;38939;47.824;14.642;2023-03-21T02:56:48;97013.97;;;7.87;85.40
39769;BME280;38939;47.824;14.642;2023-03-21T02:57:54;97014.72;;;7.80;85.95
39769;BME280;38939;47.824;14.642;2023-03-21T02:58:57;97013.91;;;7.80;85.97
39769;BME280;38939;47.824;14.642;2023-03-21T03:00:00;97019.91;;;7.80;85.12
39769;BME280;38939;47.824;14.642;2023-03-21T03:01:17;97017.03;;;7.75;85.57
39769;BME280;38939;47.824;14.642;2023-03-21T03:02:23;97013.63;;;7.75;86.29
39769;BME280;38939;47.824;14.642;2023-03-21T03:03:27;97014.44;;;7.75;85.94
39769;BME280;38939;47.824;14.642;2023-03-21T03:04:35;97016.69;;;7.78;85.55
39769;BME280;38939;47.824;14.642;2023-03-21T03:05:49;97013.72;;;7.81;85.03
39769;BME280;38939;47.824;14.642;2023-03-21T03:11:17;97022.34;;;7.82;84.75
39769;BME280;38939;47.824;14.642;2023-03-21T03:13:55;97012.91;;;7.81;84.93
39769;BME280;38939;47.824;14.642;2023-03-21T03:19:29;97015.16;;;7.84;85.11
39769;BME280;38939;47.824;14.642;2023-03-21T03:21:13;97021.72;;;7.80;85.16
39769;BME280;38939;47.824;14.642;2023-03-21T03:22:27;97022.50;;;7.80;85.29
39769;BME280;38939;47.824;14.642;2023-03-21T03:23:49;97020.53;;;7.82;85.38
39769;BME280;38939;47.824;14.642;2023-03-21T03:25:02;97023.47;;;7.79;85.95
39769;BME280;38939;47.824;14.642;2023-03-21T03:26:40;97018.06;;;7.59;86.21
39769;BME280;38939;47.824;14.642;2023-03-21T03:27:46;97015.44;;;7.45;86.74
39769;BME280;38939;47.824;14.642;2023-03-21T03:28:52;97021.44;;;7.45;86.70
39769;BME280;38939;47.824;14.642;2023-03-21T03:29:58;97013.28;;;7.48;88.37
39769;BME280;38939;47.824;14.642;2023-03-21T03:31:02;97017.94;;;7.53;87.73
39769;BME280;38939;47.824;14.642;2023-03-21T03:32:21;97016.69;;;7.49;87.62
39769;BME280;38939;47.824;14.642;2023-03-21T03:33:27;97012.50;;;7.48;87.53
39769;BME280;38939;47.824;14.642;2023-03-21T03:34:34;97014.72;;;7.51;87.60
39769;BME280;38939;47.824;14.642;2023-03-21T03:35:40;97015.63;;;7.58;87.56
39769;BME280;38939;47.824;14.642;2023-03-21T03:36:44;97017.84;;;7.61;87.65
39769;BME280;38939;47.824;14.642;2023-03-21T03:37:53;97014.28;;;7.62;87.21
39769;BME280;38939;47.824;14.642;2023-03-21T03:38:57;97022.53;;;7.66;86.50
39769;BME280;38939;47.824;14.642;2023-03-21T03:41:17;97009.34;;;7.67;87.11
39769;BME280;38939;47.824;14.642;2023-03-21T03:42:27;97017.75;;;7.69;87.22
39769;BME280;38939;47.824;14.642;2023-03-21T03:43:38;97020.00;;;7.72;86.12
39769;BME280;38939;47.824;14.642;2023-03-21T03:44:41;97016.22;;;7.75;86.53
39769;BME280;38939;47.824;14.642;2023-03-21T03:45:49;97013.81;;;7.73;86.66
39769;BME280;38939;47.824;14.642;2023-03-21T03:47:03;97008.19;;;7.70;86.70
39769;BME280;38939;47.824;14.642;2023-03-21T03:48:29;97008.00;;;7.71;86.46
39769;BME280;38939;47.824;14.642;2023-03-21T03:49:40;97014.81;;;7.72;86.16
39769;BME280;38939;47.824;14.642;2023-03-21T03:51:56;97015.78;;;7.71;86.70
39769;BME280;38939;47.824;14.642;2023-03-21T03:53:05;97015.78;;;7.71;85.85
39769;BME280;38939;47.824;14.642;2023-03-21T03:54:22;97014.19;;;7.70;86.19
39769;BME280;38939;47.824;14.642;2023-03-21T03:55:25;97009.72;;;7.64;86.14
39769;BME280;38939;47.824;14.642;2023-03-21T03:56:29;97007.47;;;7.61;86.15
39769;BME280;38939;47.824;14.642;2023-03-21T03:57:31;97006.84;;;7.59;86.92
39769;BME280;38939;47.824;14.642;2023-03-21T03:58:34;97005.25;;;7.58;86.69
39769;BME280;38939;47.824;14.642;2023-03-21T03:59:46;97007.66;;;7.59;86.89
39769;BME280;38939;47.824;14.642;2023-03-21T04:00:49;97007.03;;;7.57;86.82
39769;BME280;38939;47.824;14.642;2023-03-21T04:01:51;97002.28;;;7.61;87.02
39769;BME280;38939;47.824;14.642;2023-03-21T04:02:53;97000.94;;;7.65;86.47
39769;BME280;38939;47.824;14.642;2023-03-21T04:03:56;96996.34;;;7.67;86.14
39769;BME280;38939;47.824;14.642;2023-03-21T04:05:13;97002.91;;;7.63;86.63
39769;BME280;38939;47.824;14.642;2023-03-21T04:06:15;97005.16;;;7.66;86.36
39769;BME280;38939;47.824;14.642;2023-03-21T04:07:18;97005.31;;;7.65;87.21
39769;BME280;38939;47.824;14.642;2023-03-21T04:08:20;97004.06;;;7.60;86.60
39769;BME280;38939;47.824;14.642;2023-03-21T04:09:25;96999.78;;;7.53;86.96
39769;BME280;38939;47.824;14.642;2023-03-21T04:10:43;97007.22;;;7.56;87.78
39769;BME280;38939;47.824;14.642;2023-03-21T04:11:46;97002.03;;;7.56;87.45
39769;BME280;38939;47.824;14.642;2023-03-21T04:12:48;96999.78;;;7.53;87.22
39769;BME280;38939;47.824;14.642;2023-03-21T04:13:51;97000.94;;;7.50;87.53
39769;BME280;38939;47.824;14.642;2023-03-21T04:14:53;96993.94;;;7.51;87.66
39769;BME280;38939;47.824;14.642;2023-03-21T04:16:02;96994.75;;;7.51;87.53
39769;BME280;38939;47.824;14.642;2023-03-21T04:17:05;96995.19;;;7.55;87.93
39769;BME280;38939;47.824;14.642;2023-03-21T04:18:07;97005.59;;;7.55;87.58
39769;BME280;38939;47.824;14.642;2023-03-21T04:19:09;97009.81;;;7.56;87.39
39769;BME280;38939;47.824;14.642;2023-03-21T04:20:12;97007.84;;;7.58;88.10
39769;BME280;38939;47.824;14.642;2023-03-21T04:21:30;97005.88;;;7.60;87.58
39769;BME280;38939;47.824;14.642;2023-03-21T04:22:32;97004.88;;;7.61;88.16
39769;BME280;38939;47.824;14.642;2023-03-21T04:23:35;97000.69;;;7.60;87.29
39769;BME280;38939;47.824;14.642;2023-03-21T04:24:38;97000.50;;;7.61;87.09
39769;BME280;38939;47.824;14.642;2023-03-21T04:25:40;96992.88;;;7.60;87.31
39769;BME280;38939;47.824;14.642;2023-03-21T04:26:56;96990.00;;;7.55;87.39
39769;BME280;38939;47.824;14.642;2023-03-21T04:27:58;96997.34;;;7.51;87.99
39769;BME280;38939;47.824;14.642;2023-03-21T04:29:01;97001.28;;;7.47;87.78
39769;BME280;38939;47.824;14.642;2023-03-21T04:30:04;97002.28;;;7.46;88.97
39769;BME280;38939;47.824;14.642;2023-03-21T04:31:08;97004.72;;;7.48;88.40
39769;BME280;38939;47.824;14.642;2023-03-21T04:32:26;97008.72;;;7.50;88.16
39769;BME280;38939;47.824;14.642;2023-03-21T04:33:28;97008.34;;;7.53;87.82
39769;BME280;38939;47.824;14.642;2023-03-21T04:34:30;97007.22;;;7.56;87.58
39769;BME280;38939;47.824;14.642;2023-03-21T04:35:32;97003.28;;;7.60;87.50
39769;BME280;38939;47.824;14.642;2023-03-21T04:36:38;96995.72;;;7.65;87.63
39769;BME280;38939;47.824;14.642;2023-03-21T04:37:45;97002.53;;;7.66;87.60
39769;BME280;38939;47.824;14.642;2023-03-21T04:38:47;97004.16;;;7.67;87.98
39769;BME280;38939;47.824;14.642;2023-03-21T04:39:50;97004.59;;;7.71;88.10
39769;BME280;38939;47.824;14.642;2023-03-21T04:40:51;97003.63;;;7.72;87.17
39769;BME280;38939;47.824;14.642;2023-03-21T04:41:53;97004.03;;;7.75;87.07
39769;BME280;38939;47.824;14.642;2023-03-21T04:42:55;97002.44;;;7.74;87.07
39769;BME280;38939;47.824;14.642;2023-03-21T04:43:57;97010.88;;;7.76;87.50
39769;BME280;38939;47.824;14.642;2023-03-21T04:45:00;97008.72;;;7.80;87.19
39769;BME280;38939;47.824;14.642;2023-03-21T04:46:02;97010.94;;;7.83;86.40
39769;BME280;38939;47.824;14.642;2023-03-21T04:47:05;97004.94;;;7.82;86.51
39769;BME280;38939;47.824;14.642;2023-03-21T04:48:07;96998.75;;;7.84;87.11
39769;BME280;38939;47.824;14.642;2023-03-21T04:49:09;97001.97;;;7.86;86.34
39769;BME280;38939;47.824;14.642;2023-03-21T04:50:11;97005.22;;;7.88;86.13
39769;BME280;38939;47.824;14.642;2023-03-21T04:51:15;97003.59;;;7.87;86.75
39769;BME280;38939;47.824;14.642;2023-03-21T04:52:17;97008.78;;;7.87;86.94
39769;BME280;38939;47.824;14.642;2023-03-21T04:53:19;97008.34;;;7.83;87.10
39769;BME280;38939;47.824;14.642;2023-03-21T04:54:21;97009.75;;;7.86;87.02
39769;BME280;38939;47.824;14.642;2023-03-21T04:55:23;97011.38;;;7.87;86.31
39769;BME280;38939;47.824;14.642;2023-03-21T04:56:30;97007.81;;;7.88;86.64
39769;BME280;38939;47.824;14.642;2023-03-21T04:57:33;97007.81;;;7.88;87.42
39769;BME280;38939;47.824;14.642;2023-03-21T04:58:35;97008.44;;;7.90;86.91
39769;BME280;38939;47.824;14.642;2023-03-21T04:59:37;97006.63;;;7.90;86.17
39769;BME280;38939;47.824;14.642;2023-03-21T05:00:39;97008.22;;;7.91;86.42
39769;BME280;38939;47.824;14.642;2023-03-21T05:01:41;97001.97;;;7.86;86.97
39769;BME280;38939;47.824;14.642;2023-03-21T05:02:44;97006.91;;;7.80;87.44
39769;BME280;38939;47.824;14.642;2023-03-21T05:03:46;97011.50;;;7.78;88.11
39769;BME280;38939;47.824;14.642;2023-03-21T05:04:48;97008.28;;;7.76;88.23
39769;BME280;38939;47.824;14.642;2023-03-21T05:05:50;97012.28;;;7.79;87.61
39769;BME280;38939;47.824;14.642;2023-03-21T05:06:53;97016.31;;;7.81;88.00
39769;BME280;38939;47.824;14.642;2023-03-21T05:07:56;97009.34;;;7.82;87.43
39769;BME280;38939;47.824;14.642;2023-03-21T05:08:59;97004.56;;;7.86;87.55
39769;BME280;38939;47.824;14.642;2023-03-21T05:10:03;97011.22;;;7.88;88.15
39769;BME280;38939;47.824;14.642;2023-03-21T05:11:05;97009.25;;;7.90;87.97
39769;BME280;38939;47.824;14.642;2023-03-21T05:12:07;97003.88;;;7.92;87.99
39769;BME280;38939;47.824;14.642;2023-03-21T05:13:09;97008.44;;;7.90;87.31
39769;BME280;38939;47.824;14.642;2023-03-21T05:14:18;97013.44;;;7.91;88.09
39769;BME280;38939;47.824;14.642;2023-03-21T05:15:20;97012.47;;;7.92;87.34
39769;BME280;38939;47.824;14.642;2023-03-21T05:16:23;97011.66;;;7.92;88.17
39769;BME280;38939;47.824;14.642;2023-03-21T05:17:27;97006.47;;;7.92;87.91
39769;BME280;38939;47.824;14.642;2023-03-21T05:18:30;97010.47;;;7.94;87.27
39769;BME280;38939;47.824;14.642;2023-03-21T05:19:35;97009.94;;;7.99;87.44
39769;BME280;38939;47.824;14.642;2023-03-21T05:20:41;97016.75;;;8.00;87.06
39769;BME280;38939;47.824;14.642;2023-03-21T05:21:43;97014.31;;;7.98;87.85
39769;BME280;38939;47.824;14.642;2023-03-21T05:22:45;97007.34;;;7.99;87.83
39769;BME280;38939;47.824;14.642;2023-03-21T05:23:52;97005.72;;;7.98;86.90
39769;BME280;38939;47.824;14.642;2023-03-21T05:24:57;97012.53;;;7.99;87.43
39769;BME280;38939;47.824;14.642;2023-03-21T05:25:59;97001.78;;;8.02;87.28
39769;BME280;38939;47.824;14.642;2023-03-21T05:27:01;97008.41;;;8.05;87.05
39769;BME280;38939;47.824;14.642;2023-03-21T05:28:05;97015.84;;;7.93;87.83
39769;BME280;38939;47.824;14.642;2023-03-21T05:29:08;97012.91;;;7.81;87.66
39769;BME280;38939;47.824;14.642;2023-03-21T05:30:14;97007.09;;;7.79;87.81
39769;BME280;38939;47.824;14.642;2023-03-21T05:31:17;97013.09;;;7.79;88.49
39769;BME280;38939;47.824;14.642;2023-03-21T05:32:21;97012.13;;;7.80;87.99
39769;BME280;38939;47.824;14.642;2023-03-21T05:33:23;97015.97;;;7.85;87.79
39769;BME280;38939;47.824;14.642;2023-03-21T05:34:25;97017.22;;;7.89;87.66
39769;BME280;38939;47.824;14.642;2023-03-21T05:35:28;97016.84;;;7.92;87.70
39769;BME280;38939;47.824;14.642;2023-03-21T05:36:30;97013.25;;;7.93;87.74
39769;BME280;38939;47.824;14.642;2023-03-21T05:37:34;97021.69;;;7.95;87.46
39769;BME280;38939;47.824;14.642;2023-03-21T05:38:37;97010.84;;;7.91;87.79
39769;BME280;38939;47.824;14.642;2023-03-21T05:39:39;97018.00;;;7.89;87.44
39769;BME280;38939;47.824;14.642;2023-03-21T05:40:45;97014.44;;;7.90;87.69
39769;BME280;38939;47.824;14.642;2023-03-21T05:41:48;97016.22;;;7.90;87.70
39769;BME280;38939;47.824;14.642;2023-03-21T05:42:50;97021.78;;;7.87;88.13
39769;BME280;38939;47.824;14.642;2023-03-21T05:43:52;97020.81;;;7.88;88.17
39769;BME280;38939;47.824;14.642;2023-03-21T05:44:54;97019.81;;;7.89;87.67
39769;BME280;38939;47.824;14.642;2023-03-21T05:45:56;97017.22;;;7.89;88.05
39769;BME280;38939;47.824;14.642;2023-03-21T05:46:58;97013.81;;;7.88;87.77
39769;BME280;38939;47.824;14.642;2023-03-21T05:48:00;97012.47;;;7.92;88.50
39769;BME280;38939;47.824;14.642;2023-03-21T05:49:02;97015.50;;;7.96;88.34
39769;BME280;38939;47.824;14.642;2023-03-21T05:50:05;97018.72;;;7.98;88.17
39769;BME280;38939;47.824;14.642;2023-03-21T05:51:07;97022.75;;;8.00;88.23
39769;BME280;38939;47.824;14.642;2023-03-21T05:52:10;97017.00;;;8.05;87.88
39769;BME280;38939;47.824;14.642;2023-03-21T05:53:12;97022.63;;;8.09;87.11
39769;BME280;38939;47.824;14.642;2023-03-21T05:54:14;97013.66;;;8.11;87.70
39769;BME280;38939;47.824;14.642;2023-03-21T05:55:17;97010.72;;;8.14;87.17
39769;BME280;38939;47.824;14.642;2023-03-21T05:56:19;97015.53;;;8.17;87.02
39769;BME280;38939;47.824;14.642;2023-03-21T05:57:21;97015.53;;;8.17;87.57
39769;BME280;38939;47.824;14.642;2023-03-21T05:58:24;97018.31;;;8.16;87.16
39769;BME280;38939;47.824;14.642;2023-03-21T05:59:26;97020.28;;;8.14;87.18
39769;BME280;38939;47.824;14.642;2023-03-21T06:00:28;97017.88;;;8.12;87.42
39769;BME280;38939;47.824;14.642;2023-03-21T06:01:31;97020.28;;;8.14;87.32
39769;BME280;38939;47.824;14.642;2023-03-21T06:02:33;97015.91;;;8.14;87.03
39769;BME280;38939;47.824;14.642;2023-03-21T06:03:35;97013.31;;;8.14;87.45
39769;BME280;38939;47.824;14.642;2023-03-21T06:04:37;97009.88;;;8.14;87.06
39769;BME280;38939;47.824;14.642;2023-03-21T06:05:39;97017.16;;;8.18;87.11
39769;BME280;38939;47.824;14.642;2023-03-21T06:06:41;97015.97;;;8.21;87.20
39769;BME280;38939;47.824;14.642;2023-03-21T06:07:43;97019.81;;;8.25;86.92
39769;BME280;38939;47.824;14.642;2023-03-21T06:08:47;97024.03;;;8.26;86.93
39769;BME280;38939;47.824;14.642;2023-03-21T06:09:49;97024.22;;;8.25;87.34
39769;BME280;38939;47.824;14.642;2023-03-21T06:10:51;97025.19;;;8.24;87.20
39769;BME280;38939;47.824;14.642;2023-03-21T06:11:55;97025.75;;;8.19;87.73
39769;BME280;38939;47.824;14.642;2023-03-21T06:12:57;97024.56;;;8.21;87.17
39769;BME280;38939;47.824;14.642;2023-03-21T06:13:59;97029.59;;;8.23;87.98
39769;BME280;38939;47.824;14.642;2023-03-21T06:15:05;97030.22;;;8.25;87.26
39769;BME280;38939;47.824;14.642;2023-03-21T06:16:09;97028.06;;;8.29;87.31
39769;BME280;38939;47.824;14.642;2023-03-21T06:17:11;97025.06;;;8.32;87.20
39769;BME280;38939;47.824;14.642;2023-03-21T06:18:13;97023.72;;;8.36;87.06
39769;BME280;38939;47.824;14.642;2023-03-21T06:19:15;97026.94;;;8.38;87.30
39769;BME280;38939;47.824;14.642;2023-03-21T06:20:18;97018.16;;;8.39;86.59
39769;BME280;38939;47.824;14.642;2023-03-21T06:21:20;97023.19;;;8.40;86.77
39769;BME280;38939;47.824;14.642;2023-03-21T06:22:22;97019.44;;;8.43;86.50
39769;BME280;38939;47.824;14.642;2023-03-21T06:23:24;97022.47;;;8.47;86.61